Time;durP1;ratioP1;P1;durP2;ratioP2;P2;SDS_P1;SDS_P2;PMS_P1;PMS_P2;Temp;Humidity;BMP_temperature;BMP_pressure;BME280_temperature;BME280_humidity;BME280_pressure;Samples;Min_cycle;Max_cycle;Signal;HPM_P1;HPM_P2
2022/09/10 00:01:16;;;;;;;10.88;3.38;;;;;;;15.38;70.88;99747.63;4989677;28;20042;-52
2022/09/10 00:03:42;;;;;;;6.90;3.75;;;;;;;15.37;71.17;99751.13;4988516;28;20049;-56
2022/09/10 00:06:10;;;;;;;7.43;3.42;;;;;;;15.36;71.46;99754.63;4981767;28;20050;-54
2022/09/10 00:08:38;;;;;;;9.27;4.55;;;;;;;15.36;71.62;99753.78;4985168;28;20141;-55
2022/09/10 00:11:08;;;;;;;7.35;4.00;;;;;;;15.35;71.28;99752.94;4987954;28;20046;-57
2022/09/10 00:13:38;;;;;;;6.72;3.80;;;;;;;15.37;71.69;99758.94;4997926;28;20100;-54
2022/09/10 00:16:08;;;;;;;8.57;3.63;;;;;;;15.36;71.22;99759.84;5000182;28;20092;-54
2022/09/10 00:18:35;;;;;;;9.52;4.22;;;;;;;15.36;70.79;99757.25;4995775;28;20076;-52
2022/09/10 00:21:05;;;;;;;13.77;4.28;;;;;;;15.35;71.83;99758.16;5001835;28;20111;-55
2022/09/10 00:23:33;;;;;;;11.15;4.25;;;;;;;15.34;71.61;99751.22;5004710;28;20053;-54
2022/09/10 00:26:10;;;;;;;8.38;4.35;;;;;;;15.30;71.68;99754.78;5007011;28;20046;-55
2022/09/10 00:28:38;;;;;;;11.20;4.15;;;;;;;15.30;72.16;99760.00;4994890;28;20046;-55
2022/09/10 00:31:05;;;;;;;12.00;4.55;;;;;;;15.27;71.82;99760.97;4990431;28;20039;-54
2022/09/10 00:33:32;;;;;;;9.77;4.10;;;;;;;15.28;72.02;99759.22;4982258;28;20458;-56
2022/09/10 00:35:59;;;;;;;11.00;5.00;;;;;;;15.27;72.15;99744.47;4992159;28;20097;-55
2022/09/10 00:38:28;;;;;;;9.48;4.70;;;;;;;15.29;72.27;99745.25;4985602;28;20054;-55
2022/09/10 00:41:02;;;;;;;10.98;5.65;;;;;;;15.29;72.22;99753.97;4985948;28;20050;-53
2022/09/10 00:44:01;;;;;;;11.80;5.10;;;;;;;15.27;72.54;99757.50;4981637;28;20050;-56
2022/09/10 00:49:13;;;;;;;12.73;5.78;;;;;;;15.35;72.85;99757.28;5052645;27;20393;-54
2022/09/10 00:51:42;;;;;;;10.70;5.53;;;;;;;15.37;72.78;99768.56;5036559;28;20111;-55
2022/09/10 00:54:10;;;;;;;11.98;5.88;;;;;;;15.38;72.79;99765.91;5035178;28;20049;-56
2022/09/10 00:56:37;;;;;;;13.43;5.35;;;;;;;15.40;72.59;99766.69;5034874;28;20127;-53
2022/09/10 00:59:08;;;;;;;13.02;5.20;;;;;;;15.43;72.94;99768.38;5046080;28;20048;-56
2022/09/10 01:01:37;;;;;;;10.65;4.60;;;;;;;15.44;72.90;99775.31;5056185;28;20110;-54
2022/09/10 01:04:06;;;;;;;10.57;4.82;;;;;;;15.45;73.34;99768.31;5039899;28;20037;-53
2022/09/10 01:06:34;;;;;;;15.35;5.40;;;;;;;15.46;73.19;99770.91;5066972;28;20476;-54
2022/09/10 01:09:01;;;;;;;13.38;5.13;;;;;;;15.48;73.10;99776.06;5072614;28;20056;-58
2022/09/10 01:14:38;;;;;;;11.90;4.85;;;;;;;15.46;73.69;99780.47;5046179;27;20939;-54
2022/09/10 01:17:45;;;;;;;10.52;4.70;;;;;;;15.47;73.18;99783.03;5033476;28;20149;-55
2022/09/10 01:26:24;;;;;;;10.57;4.63;;;;;;;15.55;73.42;99785.47;5055290;27;20402;-53
2022/09/10 01:29:00;;;;;;;10.95;4.38;;;;;;;15.60;73.12;99783.56;5008273;28;20175;-47
2022/09/10 01:34:15;;;;;;;12.25;5.15;;;;;;;15.64;72.87;99789.56;5039641;27;20410;-53
2022/09/10 01:36:47;;;;;;;10.82;4.63;;;;;;;15.65;73.36;99789.53;5012490;28;20058;-50
2022/09/10 01:39:19;;;;;;;12.45;5.18;;;;;;;15.66;73.39;99798.19;5015067;28;20050;-55
2022/09/10 01:41:47;;;;;;;11.20;5.20;;;;;;;15.65;73.29;99796.50;5013297;28;20042;-51
2022/09/10 01:44:51;;;;;;;12.30;4.35;;;;;;;15.59;72.96;99802.75;5013345;28;20182;-52
2022/09/10 01:47:50;;;;;;;10.50;3.95;;;;;;;15.62;73.08;99799.19;5014221;28;20153;-52
2022/09/10 02:04:00;;;;;;;12.15;4.70;;;;;;;15.71;74.01;99795.47;5071520;27;20460;-54
2022/09/10 02:06:33;;;;;;;14.10;4.60;;;;;;;15.71;73.80;99790.25;5002110;28;20054;-51
2022/09/10 02:09:01;;;;;;;9.45;4.63;;;;;;;15.67;74.20;99795.56;5014790;28;20061;-53
2022/09/10 02:11:29;;;;;;;12.95;4.32;;;;;;;15.68;74.11;99792.03;5005037;28;20077;-53
2022/09/10 02:13:57;;;;;;;9.65;3.75;;;;;;;15.67;74.11;99795.56;5012522;28;20042;-51
2022/09/10 02:16:30;;;;;;;11.57;4.43;;;;;;;15.68;74.38;99791.19;5022983;28;20057;-52
2022/09/10 02:18:58;;;;;;;10.25;5.22;;;;;;;15.67;73.93;99794.69;5053882;28;20042;-53
2022/09/10 02:21:26;;;;;;;8.68;4.25;;;;;;;15.65;73.91;99792.16;5004482;28;20642;-55
2022/09/10 02:23:58;;;;;;;10.25;5.50;;;;;;;15.65;74.54;99802.59;5023500;28;20517;-55
2022/09/10 02:26:25;;;;;;;10.20;4.40;;;;;;;15.62;74.35;99807.88;5036813;28;20058;-54
2022/09/10 02:28:53;;;;;;;11.27;4.75;;;;;;;15.62;74.46;99807.00;5011272;28;20139;-52
2022/09/10 02:31:20;;;;;;;9.68;4.55;;;;;;;15.61;74.56;99805.31;5012386;28;20045;-49
2022/09/10 02:33:47;;;;;;;8.48;3.63;;;;;;;15.59;74.71;99807.97;5002258;28;20054;-53
2022/09/10 02:36:13;;;;;;;8.48;3.97;;;;;;;15.58;75.11;99801.03;4995920;28;20155;-49
2022/09/10 02:38:40;;;;;;;6.60;3.35;;;;;;;15.56;74.73;99800.22;4998449;28;20504;-52
2022/09/10 02:41:08;;;;;;;8.48;5.35;;;;;;;15.55;75.10;99795.91;4997944;28;20701;-55
2022/09/10 02:43:36;;;;;;;7.32;3.28;;;;;;;15.53;75.23;99802.91;4999633;28;20489;-52
2022/09/10 02:46:07;;;;;;;7.55;3.83;;;;;;;15.53;75.37;99802.91;4997589;28;20046;-51
2022/09/10 02:48:34;;;;;;;8.27;4.25;;;;;;;15.52;75.51;99798.59;4996710;28;20057;-50
2022/09/10 02:51:01;;;;;;;9.73;3.78;;;;;;;15.51;75.58;99799.50;4999470;28;20072;-50
2022/09/10 02:53:30;;;;;;;6.90;3.38;;;;;;;15.50;75.88;99801.22;5000687;28;20158;-50
2022/09/10 02:55:57;;;;;;;11.13;4.38;;;;;;;15.51;75.68;99800.31;5000318;28;20165;-53
2022/09/10 02:58:23;;;;;;;8.98;4.72;;;;;;;15.51;75.45;99805.53;5006693;28;20046;-49
2022/09/10 03:00:50;;;;;;;11.05;4.78;;;;;;;15.51;75.74;99810.75;5020948;28;20504;-50
2022/09/10 03:03:17;;;;;;;10.75;4.57;;;;;;;15.51;75.59;99817.75;5020242;28;20044;-51
2022/09/10 03:05:43;;;;;;;10.82;4.95;;;;;;;15.51;75.98;99830.81;5008601;28;20081;-49
2022/09/10 03:08:10;;;;;;;12.27;5.07;;;;;;;15.49;75.67;99837.81;5005713;28;20077;-49
2022/09/10 03:10:38;;;;;;;13.15;5.75;;;;;;;15.48;75.78;99833.50;5008815;28;20125;-52
2022/09/10 03:13:04;;;;;;;14.85;5.50;;;;;;;15.47;75.84;99829.19;5018731;28;20133;-51
2022/09/10 03:15:31;;;;;;;13.18;5.25;;;;;;;15.48;75.66;99836.09;5007789;28;20041;-52
2022/09/10 03:17:57;;;;;;;15.88;5.00;;;;;;;15.50;75.95;99839.53;5007506;28;20589;-52
2022/09/10 03:20:24;;;;;;;12.13;4.90;;;;;;;15.51;76.25;99846.47;4995035;28;20054;-49
2022/09/10 03:22:51;;;;;;;12.80;5.30;;;;;;;15.52;75.97;99850.78;4983920;28;20050;-51
2022/09/10 03:25:18;;;;;;;11.23;4.95;;;;;;;15.52;75.87;99840.34;4987768;28;20057;-51
2022/09/10 03:27:45;;;;;;;17.08;5.13;;;;;;;15.53;76.05;99844.66;4983658;28;20092;-48
2022/09/10 03:30:11;;;;;;;11.35;5.95;;;;;;;15.54;75.96;99846.41;4981676;28;20141;-52
2022/09/10 03:32:38;;;;;;;13.95;5.32;;;;;;;15.54;76.60;99846.41;4983414;28;20150;-49
2022/09/10 03:35:05;;;;;;;12.25;5.30;;;;;;;15.57;75.84;99856.72;4996921;28;20460;-52
2022/09/10 03:37:32;;;;;;;13.38;5.93;;;;;;;15.60;76.07;99861.88;4999669;28;20137;-48
2022/09/10 03:39:59;;;;;;;10.70;5.35;;;;;;;15.63;76.35;99860.94;5003969;28;20048;-52
2022/09/10 03:42:26;;;;;;;15.02;6.55;;;;;;;15.65;76.01;99865.25;4988450;28;20053;-51
2022/09/10 03:44:52;;;;;;;12.80;5.65;;;;;;;15.67;75.76;99867.78;4983982;28;20056;-50
2022/09/10 03:47:19;;;;;;;14.40;6.07;;;;;;;15.67;75.97;99863.44;4984910;28;20042;-51
2022/09/10 03:49:45;;;;;;;19.13;6.03;;;;;;;15.68;75.78;99867.75;4995285;28;20081;-50
2022/09/10 03:52:12;;;;;;;10.43;4.82;;;;;;;15.68;76.22;99859.06;5006847;28;20501;-50
2022/09/10 03:54:39;;;;;;;17.50;6.05;;;;;;;15.66;75.56;99859.13;5007915;28;20465;-48
2022/09/10 03:57:05;;;;;;;15.27;6.20;;;;;;;15.64;76.05;99858.28;4987834;28;20068;-46
2022/09/10 03:59:32;;;;;;;12.48;5.53;;;;;;;15.63;75.88;99861.78;4990923;28;20081;-52
2022/09/10 04:01:58;;;;;;;12.13;5.22;;;;;;;15.64;76.14;99858.28;4983414;28;20054;-50
2022/09/10 04:04:25;;;;;;;15.13;5.22;;;;;;;15.64;76.05;99863.50;4981603;28;20081;-48
2022/09/10 04:06:52;;;;;;;11.77;4.97;;;;;;;15.68;76.18;99869.53;4988094;28;20046;-48
2022/09/10 04:09:19;;;;;;;17.13;4.93;;;;;;;15.71;75.73;99877.28;4987727;28;20132;-49
2022/09/10 04:11:46;;;;;;;10.30;4.97;;;;;;;15.71;75.54;99885.09;5005757;28;20057;-48
2022/09/10 04:14:12;;;;;;;14.55;4.88;;;;;;;15.74;75.50;99878.94;5005061;28;20132;-49
2022/09/10 04:16:39;;;;;;;14.23;6.13;;;;;;;15.74;75.61;99879.78;5006968;28;20644;-47
2022/09/10 04:19:06;;;;;;;12.05;4.65;;;;;;;15.77;75.69;99884.09;5004406;28;20136;-47
2022/09/10 04:21:32;;;;;;;14.63;4.70;;;;;;;15.79;75.81;99882.28;5005594;28;20121;-51
2022/09/10 04:23:59;;;;;;;9.73;4.93;;;;;;;15.80;75.53;99876.13;4983173;28;20137;-51
2022/09/10 04:26:26;;;;;;;9.77;4.13;;;;;;;15.81;75.73;99881.31;4983442;28;20109;-51
2022/09/10 04:28:52;;;;;;;12.57;4.05;;;;;;;15.83;75.31;99878.69;4981249;28;20137;-54
2022/09/10 04:31:19;;;;;;;12.77;4.70;;;;;;;15.82;75.29;99879.59;4983501;28;20046;-54
2022/09/10 04:33:46;;;;;;;10.13;3.90;;;;;;;15.84;75.68;99875.16;4978435;28;20074;-52
2022/09/10 04:36:13;;;;;;;8.55;4.55;;;;;;;15.85;75.70;99886.47;4974201;28;20057;-52
2022/09/10 04:38:40;;;;;;;8.82;4.43;;;;;;;15.84;75.75;99885.59;4981361;28;20133;-51
2022/09/10 04:41:08;;;;;;;8.45;3.88;;;;;;;15.83;75.29;99889.13;4986009;28;20464;-53
2022/09/10 04:43:36;;;;;;;11.05;4.68;;;;;;;15.81;75.31;99885.72;4984325;28;20188;-54
2022/09/10 04:46:03;;;;;;;9.07;4.80;;;;;;;15.81;75.37;99896.16;4984133;28;20136;-50
2022/09/10 04:48:31;;;;;;;16.00;5.28;;;;;;;15.81;75.04;99894.38;4984247;28;20050;-53
2022/09/10 04:50:58;;;;;;;9.80;4.70;;;;;;;15.81;75.48;99896.16;5009231;28;20137;-50
2022/09/10 04:53:42;;;;;;;11.40;4.35;;;;;;;15.81;75.29;99897.00;4988679;28;20050;-51
2022/09/10 04:56:09;;;;;;;8.73;4.60;;;;;;;15.83;74.88;99899.56;4985613;28;20137;-54
2022/09/10 04:58:35;;;;;;;12.40;4.20;;;;;;;15.84;74.90;99905.66;4982067;28;20145;-49
2022/09/10 05:01:05;;;;;;;8.52;3.85;;;;;;;15.83;75.24;99899.56;4979829;28;20064;-51
2022/09/10 05:03:32;;;;;;;8.70;4.75;;;;;;;15.81;75.40;99899.59;4985145;28;20042;-53
2022/09/10 05:05:59;;;;;;;9.65;4.18;;;;;;;15.83;75.07;99894.34;4986754;28;20158;-52
2022/09/10 05:08:25;;;;;;;7.95;4.03;;;;;;;15.84;75.27;99896.06;4986653;28;20121;-52
2022/09/10 05:10:52;;;;;;;8.77;4.10;;;;;;;15.84;74.65;99896.06;4994776;28;20124;-54
2022/09/10 05:13:18;;;;;;;6.32;3.63;;;;;;;15.84;75.21;99906.50;5006336;28;20077;-50
2022/09/10 05:15:45;;;;;;;12.00;3.60;;;;;;;15.84;75.11;99901.28;5006377;28;20153;-48
2022/09/10 05:18:11;;;;;;;10.60;3.70;;;;;;;15.83;75.21;99899.56;5007467;28;20052;-47
2022/09/10 05:20:38;;;;;;;7.65;3.70;;;;;;;15.85;75.27;99903.00;5005795;28;20137;-50
2022/09/10 05:23:05;;;;;;;7.95;3.60;;;;;;;15.86;74.65;99904.72;4995310;28;20141;-53
2022/09/10 05:25:33;;;;;;;9.93;4.07;;;;;;;15.86;74.96;99898.63;4985189;28;20051;-50
2022/09/10 05:28:00;;;;;;;11.35;4.03;;;;;;;15.86;74.74;99904.72;4985300;28;20078;-51
2022/09/10 05:30:31;;;;;;;9.68;4.30;;;;;;;15.85;75.29;99908.22;5005924;28;20089;-53
2022/09/10 05:33:00;;;;;;;9.45;5.15;;;;;;;15.84;75.34;99909.09;5002588;28;20538;-48
2022/09/10 05:35:27;;;;;;;9.25;4.30;;;;;;;15.83;74.97;99910.00;4988517;28;20137;-53
2022/09/10 05:37:56;;;;;;;9.20;3.58;;;;;;;15.83;74.92;99910.00;4993465;28;20042;-51
2022/09/10 05:40:24;;;;;;;9.50;3.80;;;;;;;15.82;75.00;99913.53;5007275;28;20127;-52
2022/09/10 05:42:51;;;;;;;11.15;4.65;;;;;;;15.80;75.13;99916.19;5008861;28;20913;-48
2022/09/10 05:45:19;;;;;;;8.57;3.85;;;;;;;15.79;75.13;99918.81;4984079;28;20050;-50
2022/09/10 05:47:46;;;;;;;5.45;2.63;;;;;;;15.75;74.56;99923.28;5000454;28;20058;-50
2022/09/10 05:50:13;;;;;;;8.15;2.97;;;;;;;15.73;74.90;99918.97;5000258;28;20081;-47
2022/09/10 05:52:40;;;;;;;7.50;2.70;;;;;;;15.68;74.78;99922.56;4992256;28;20046;-50
2022/09/10 05:55:07;;;;;;;7.35;3.15;;;;;;;15.66;75.24;99928.72;4993738;28;20057;-54
2022/09/10 05:57:34;;;;;;;8.90;3.03;;;;;;;15.64;75.00;99934.00;4981342;28;20137;-50
2022/09/10 06:00:04;;;;;;;8.35;2.95;;;;;;;15.63;74.98;99937.50;4999206;28;20146;-52
2022/09/10 06:02:30;;;;;;;6.20;3.10;;;;;;;15.65;75.41;99953.13;4987217;28;20136;-49
2022/09/10 06:04:57;;;;;;;6.57;3.17;;;;;;;15.64;75.28;99949.66;4981008;28;20038;-51
2022/09/10 06:07:24;;;;;;;9.32;3.00;;;;;;;15.67;75.61;99957.41;4981653;28;20060;-52
2022/09/10 06:09:50;;;;;;;8.88;2.85;;;;;;;15.68;75.35;99948.69;4985254;28;20042;-52
2022/09/10 06:12:17;;;;;;;5.35;2.88;;;;;;;15.72;75.13;99953.81;5001115;28;20145;-52
2022/09/10 06:14:44;;;;;;;7.45;2.60;;;;;;;15.75;75.26;99961.59;5003655;28;20136;-49
2022/09/10 06:17:11;;;;;;;5.85;2.42;;;;;;;15.77;75.35;99967.63;4991657;28;20134;-54
2022/09/10 06:19:38;;;;;;;5.85;2.53;;;;;;;15.81;75.37;99977.09;4989705;28;20172;-48
2022/09/10 06:22:05;;;;;;;5.07;2.47;;;;;;;15.86;75.38;99983.06;5005346;28;20132;-51
2022/09/10 06:24:31;;;;;;;6.55;2.88;;;;;;;15.89;75.06;99983.00;5002514;28;20164;-48
2022/09/10 06:26:58;;;;;;;8.13;3.00;;;;;;;15.94;75.47;99991.56;4985033;28;20557;-50
2022/09/10 06:29:24;;;;;;;7.00;2.75;;;;;;;15.97;75.47;99990.63;4987079;28;20227;-52
2022/09/10 06:31:51;;;;;;;8.25;2.78;;;;;;;16.00;75.28;99997.53;4978967;28;20057;-48
2022/09/10 06:34:18;;;;;;;6.40;2.60;;;;;;;16.02;75.00;99995.75;4989919;28;20056;-53
2022/09/10 06:36:46;;;;;;;5.88;2.25;;;;;;;16.03;75.17;100000.06;5002730;28;20172;-52
2022/09/10 06:39:13;;;;;;;8.35;2.95;;;;;;;16.04;75.35;100001.78;4983125;28;20133;-56
2022/09/10 06:41:41;;;;;;;5.00;2.47;;;;;;;16.06;75.41;100000.00;4984017;28;20514;-48
2022/09/10 06:44:12;;;;;;;7.85;2.30;;;;;;;16.06;74.80;100005.22;4984089;28;20077;-50
2022/09/10 06:46:38;;;;;;;6.53;2.35;;;;;;;16.06;75.42;100015.66;4980058;28;20054;-49
2022/09/10 06:49:28;;;;;;;7.05;2.85;;;;;;;16.06;75.50;100016.53;4981569;28;20046;-49
2022/09/10 06:51:55;;;;;;;6.93;3.35;;;;;;;16.07;75.34;100022.59;4985662;28;20129;-49
2022/09/10 06:54:21;;;;;;;5.03;2.75;;;;;;;16.07;74.75;100027.81;4984634;28;20154;-49
2022/09/10 06:56:48;;;;;;;7.88;4.30;;;;;;;16.08;75.11;100029.56;4985087;28;21529;-51
2022/09/10 06:59:17;;;;;;;5.55;2.95;;;;;;;16.11;75.29;100039.91;5000224;28;20045;-54
2022/09/10 07:01:43;;;;;;;4.10;2.22;;;;;;;16.14;75.13;100039.84;4998163;28;20070;-52
2022/09/10 07:04:10;;;;;;;6.20;2.85;;;;;;;16.19;74.90;100053.63;4985064;28;20176;-53
2022/09/10 07:06:37;;;;;;;8.95;2.80;;;;;;;16.21;75.38;100044.91;4987863;28;20053;-50
2022/09/10 07:09:04;;;;;;;9.05;2.92;;;;;;;16.24;75.22;100050.06;4987778;28;20459;-52
2022/09/10 07:11:31;;;;;;;6.50;2.50;;;;;;;16.25;75.17;100051.78;4986178;28;20082;-54
2022/09/10 07:13:59;;;;;;;8.15;3.15;;;;;;;16.26;74.89;100054.34;4984461;28;20049;-50
2022/09/10 07:16:27;;;;;;;7.95;2.60;;;;;;;16.27;75.12;100049.97;4991446;28;20141;-53
2022/09/10 07:18:56;;;;;;;5.18;2.72;;;;;;;16.30;74.98;100050.75;5001203;28;20420;-54
2022/09/10 07:21:26;;;;;;;6.45;2.88;;;;;;;16.35;75.00;100055.00;4968199;28;20050;-53
2022/09/10 07:23:56;;;;;;;11.32;3.05;;;;;;;16.39;75.36;100054.88;4998673;28;20141;-51
2022/09/10 07:26:23;;;;;;;9.68;2.90;;;;;;;16.47;75.31;100062.50;4996025;28;20054;-49
2022/09/10 07:28:51;;;;;;;9.77;3.33;;;;;;;16.59;74.74;100058.72;4985883;28;20136;-53
2022/09/10 07:31:21;;;;;;;8.65;2.70;;;;;;;16.74;74.48;100056.53;4987076;28;20056;-52
2022/09/10 07:33:48;;;;;;;6.25;2.72;;;;;;;16.84;74.52;100060.63;4986150;28;20053;-54
2022/09/10 07:36:16;;;;;;;4.85;2.83;;;;;;;16.89;74.03;100063.94;4986438;28;20495;-52
2022/09/10 07:38:43;;;;;;;6.90;2.92;;;;;;;16.89;74.30;100070.97;5003480;28;20165;-53
2022/09/10 07:41:12;;;;;;;7.45;3.38;;;;;;;17.08;73.96;100064.31;5002922;28;20129;-54
2022/09/10 07:43:40;;;;;;;6.78;2.75;;;;;;;17.31;73.79;100069.75;4984142;28;20141;-54
2022/09/10 07:46:12;;;;;;;5.55;2.85;;;;;;;17.41;73.27;100073.81;4990874;28;20045;-51
2022/09/10 07:48:40;;;;;;;10.73;3.10;;;;;;;17.47;73.59;100071.00;5007107;28;20046;-52
2022/09/10 07:51:10;;;;;;;6.95;2.95;;;;;;;17.54;73.07;100081.28;5007615;28;20120;-54
2022/09/10 07:53:37;;;;;;;7.72;3.33;;;;;;;17.53;72.56;100088.28;5003554;28;20045;-53
2022/09/10 07:56:06;;;;;;;5.78;3.38;;;;;;;17.55;72.58;100093.47;4999193;28;20050;-52
2022/09/10 07:58:34;;;;;;;6.65;2.90;;;;;;;17.56;73.20;100097.81;4985744;28;20054;-52
2022/09/10 08:01:07;;;;;;;7.85;3.10;;;;;;;17.55;72.56;100102.19;4983575;28;20057;-53
2022/09/10 08:03:34;;;;;;;7.57;3.05;;;;;;;17.53;73.30;100108.38;4984166;28;20104;-54
2022/09/10 08:06:02;;;;;;;8.07;2.92;;;;;;;17.50;73.32;100111.97;5006501;28;20140;-53
2022/09/10 08:08:30;;;;;;;6.95;2.92;;;;;;;17.47;73.09;100106.81;5005992;28;20050;-49
2022/09/10 08:13:44;;;;;;;9.45;4.60;;;;;;;17.47;73.38;100107.63;5053899;27;20398;-51
2022/09/10 08:16:13;;;;;;;5.85;2.95;;;;;;;17.44;73.11;100105.16;5015981;28;20118;-51
2022/09/10 08:18:41;;;;;;;;;;;;;;;17.34;73.95;100111.56;5035520;28;20137;-51
2022/09/10 08:21:09;;;;;;;8.43;3.78;;;;;;;17.41;72.92;100117.44;5033967;28;19953;-50
2022/09/10 08:23:38;;;;;;;7.75;3.28;;;;;;;17.42;73.11;100117.41;5024613;28;20056;-54
2022/09/10 08:26:06;;;;;;;8.50;3.25;;;;;;;17.41;73.14;100115.69;5033526;28;20049;-53
2022/09/10 08:28:34;;;;;;;6.40;3.80;;;;;;;17.42;72.49;100125.25;5033402;28;20049;-51
2022/09/10 08:31:06;;;;;;;8.40;4.03;;;;;;;17.46;73.40;100116.41;5037158;28;20049;-52
2022/09/10 08:33:35;;;;;;;9.25;4.55;;;;;;;17.63;73.60;100112.41;5041598;28;20072;-55
2022/09/10 08:36:04;;;;;;;12.77;4.43;;;;;;;18.21;74.00;100119.31;5037615;28;20049;-52
2022/09/10 08:38:33;;;;;;;5.88;3.90;;;;;;;19.06;72.80;100112.06;5032680;28;20081;-51
2022/09/10 08:41:07;;;;;;;5.22;3.67;;;;;;;19.70;70.74;100122.75;5032039;28;20136;-50
2022/09/10 08:46:22;;;;;;;7.25;4.65;;;;;;;19.65;69.06;100124.69;5032762;28;20442;-54
2022/09/10 08:48:57;;;;;;;11.07;4.28;;;;;;;19.41;69.11;100130.00;4998818;28;20070;-51
2022/09/10 08:51:28;;;;;;;7.70;4.78;;;;;;;19.21;69.21;100131.59;4997294;28;20064;-54
2022/09/10 08:54:01;;;;;;;9.07;4.13;;;;;;;19.09;69.38;100126.81;4996145;28;20514;-54
2022/09/10 08:56:30;;;;;;;10.38;4.30;;;;;;;19.02;70.24;100131.41;4989268;28;20050;-54
2022/09/10 09:01:39;;;;;;;8.20;5.10;;;;;;;19.15;69.16;100137.06;5035897;27;20908;-50
2022/09/10 09:04:19;;;;;;;11.27;4.10;;;;;;;19.02;69.94;100148.00;4992454;28;20465;-52
2022/09/10 09:06:51;;;;;;;8.35;3.90;;;;;;;19.02;70.00;100148.00;4997731;28;20768;-55
2022/09/10 09:09:17;;;;;;;6.55;3.85;;;;;;;19.05;70.06;100151.44;4995846;28;20056;-54
2022/09/10 09:14:44;;;;;;;7.43;4.45;;;;;;;19.02;69.63;100152.41;5031241;27;20410;-56
2022/09/10 09:25:31;;;;;;;8.52;3.67;;;;;;;18.97;69.55;100164.81;5057313;28;20939;-48
2022/09/10 09:27:58;;;;;;;4.35;2.83;;;;;;;19.01;69.92;100164.66;5057661;28;20559;-51
2022/09/10 09:30:32;;;;;;;6.07;2.63;;;;;;;19.02;69.32;100163.75;5060406;28;20084;-52
2022/09/10 09:33:11;;;;;;;3.90;2.10;;;;;;;19.07;69.56;100168.00;5037113;28;20042;-56
2022/09/10 09:41:06;;;;;;;4.95;2.20;;;;;;;18.98;69.50;100174.44;5044610;27;20410;-54
2022/09/10 09:46:29;;;;;;;7.97;3.25;;;;;;;18.95;69.26;100188.50;5042270;28;20409;-55
2022/09/10 09:48:58;;;;;;;4.80;3.28;;;;;;;18.97;69.56;100189.31;5002897;28;20069;-51
2022/09/10 09:51:29;;;;;;;8.63;3.80;;;;;;;19.01;69.28;100184.81;5001447;28;20077;-48
2022/09/10 09:53:59;;;;;;;7.38;3.20;;;;;;;19.06;69.50;100182.91;5000094;28;20134;-56
2022/09/10 09:56:48;;;;;;;4.80;3.20;;;;;;;19.13;69.02;100180.91;5011735;28;20057;-53
2022/09/10 09:59:24;;;;;;;;;;;;;;;19.19;68.79;100183.34;5002666;28;20073;-54
2022/09/10 10:01:51;;;;;;;6.25;3.83;;;;;;;19.68;69.12;100182.38;4996500;28;19929;-52
2022/09/10 10:04:22;;;;;;;7.97;3.33;;;;;;;20.37;68.33;100182.34;5000975;28;20058;-53
2022/09/10 10:06:58;;;;;;;3.90;2.60;;;;;;;20.89;66.88;100186.31;4996426;28;20132;-51
2022/09/10 10:09:28;;;;;;;5.00;3.25;;;;;;;21.22;65.69;100188.38;4998000;28;20184;-52
2022/09/10 10:22:42;;;;;;;4.50;2.10;;;;;;;22.50;62.17;100192.06;5080694;27;20407;-54
2022/09/10 10:25:37;;;;;;;4.43;2.55;;;;;;;22.30;61.14;100200.06;5044489;28;20133;-53
2022/09/10 10:28:25;;;;;;;5.72;3.40;;;;;;;22.06;61.05;100195.03;5028291;28;20700;-52
2022/09/10 10:30:55;;;;;;;6.90;3.08;;;;;;;21.89;61.94;100202.94;5021017;28;20037;-53
2022/09/10 10:33:27;;;;;;;4.43;2.60;;;;;;;21.67;62.02;100210.03;5024899;28;20053;-50
2022/09/10 10:36:17;;;;;;;4.10;2.33;;;;;;;21.51;61.64;100214.31;5023141;28;20144;-55
2022/09/10 10:38:52;;;;;;;3.25;2.25;;;;;;;21.45;62.49;100220.72;5030007;28;20141;-55
2022/09/10 10:41:58;;;;;;;5.43;2.67;;;;;;;21.35;62.83;100214.16;5036765;28;20052;-53
2022/09/10 10:55:46;;;;;;;4.32;1.92;;;;;;;21.00;62.99;100215.66;5040970;27;20429;-50
2022/09/10 11:06:19;;;;;;;3.53;1.52;;;;;;;20.45;64.43;100224.97;5013652;27;20420;-54
2022/09/10 11:08:56;;;;;;;3.78;1.95;;;;;;;20.38;64.47;100223.50;5000277;28;20165;-54
2022/09/10 11:11:32;;;;;;;2.63;1.35;;;;;;;20.31;65.21;100227.28;5001014;28;20109;-53
2022/09/10 11:14:39;;;;;;;2.92;1.50;;;;;;;20.21;65.32;100227.69;5001462;28;20558;-56
2022/09/10 11:45:53;;;;;;;7.28;2.40;;;;;;;21.04;64.37;100230.41;5049397;28;20408;-52
2022/09/10 11:48:43;;;;;;;3.67;1.95;;;;;;;21.09;63.72;100229.34;5020546;28;20076;-53
2022/09/10 11:51:17;;;;;;;5.97;2.10;;;;;;;21.19;63.95;100231.53;5016540;28;20056;-55
2022/09/10 11:53:44;;;;;;;5.10;2.75;;;;;;;21.27;63.77;100232.94;5018285;28;20038;-53
2022/09/10 12:07:09;;;;;;;3.25;1.90;;;;;;;21.44;62.47;100240.06;5091677;27;20425;-56
2022/09/10 12:09:48;;;;;;;3.80;1.67;;;;;;;21.42;62.08;100241.94;5062848;28;20731;-53
2022/09/10 12:17:41;;;;;;;3.88;2.63;;;;;;;22.06;60.13;100226.69;5029034;27;20399;-50
2022/09/10 12:20:17;;;;;;;4.88;2.10;;;;;;;22.11;60.31;100228.25;5022048;28;20140;-54
2022/09/10 12:22:44;;;;;;;;;;;;;;;22.20;59.21;100238.38;5017732;28;20137;-54
2022/09/10 12:27:56;;;;;;;3.88;1.50;;;;;;;22.45;59.49;100238.00;5120817;27;20398;-54
2022/09/10 12:33:06;;;;;;;2.63;1.50;;;;;;;22.49;59.30;100243.97;5055155;27;20405;-56
2022/09/10 12:38:49;;;;;;;2.75;2.55;;;;;;;22.24;59.02;100253.13;5086109;27;20749;-55
2022/09/10 12:44:01;;;;;;;3.10;1.75;;;;;;;22.03;59.13;100253.22;5089889;27;20414;-54
2022/09/10 12:46:30;;;;;;;3.20;1.38;;;;;;;21.98;59.42;100255.22;5065465;28;20067;-53
2022/09/10 13:02:36;;;;;;;2.85;1.85;;;;;;;22.06;57.86;100253.06;5035313;28;20413;-55
2022/09/10 13:05:18;;;;;;;2.55;2.35;;;;;;;22.01;58.25;100252.44;5012224;28;20504;-56
2022/09/10 13:07:48;;;;;;;2.90;1.52;;;;;;;21.98;58.43;100252.56;5021617;28;20397;-56
2022/09/10 13:10:26;;;;;;;5.80;2.38;;;;;;;22.08;59.68;100251.22;5015814;28;20126;-53
2022/09/10 13:12:57;;;;;;;5.32;3.33;;;;;;;22.34;59.25;100246.47;5016915;28;20046;-53
2022/09/10 13:15:26;;;;;;;2.97;1.15;;;;;;;22.53;59.05;100245.53;5019638;28;21004;-55
2022/09/10 13:20:33;;;;;;;4.85;1.17;;;;;;;22.80;54.98;100253.03;5078292;27;20402;-54
2022/09/10 13:23:02;;;;;;;;;;;;;;;22.65;56.43;100253.81;5097473;28;20072;-57
2022/09/10 13:25:35;;;;;;;5.28;1.30;;;;;;;22.70;55.61;100244.72;5089030;28;19919;-57
2022/09/10 13:52:14;;;;;;;3.53;1.17;;;;;;;22.85;56.34;100251.03;5049789;27;20738;-53
2022/09/10 13:54:46;;;;;;;3.25;2.45;;;;;;;22.69;56.81;100260.63;5021315;28;20080;-56
2022/09/10 13:57:19;;;;;;;3.75;2.15;;;;;;;22.53;56.48;100256.09;5009731;28;20057;-57
2022/09/10 13:59:50;;;;;;;3.42;2.53;;;;;;;22.38;56.40;100254.22;5008343;28;20096;-55
2022/09/10 14:02:20;;;;;;;3.58;2.67;;;;;;;22.25;57.25;100260.09;5015460;28;20149;-56
2022/09/10 14:04:47;;;;;;;5.25;2.95;;;;;;;22.17;56.59;100268.41;5014128;28;20103;-54
2022/09/10 14:07:19;;;;;;;3.15;2.78;;;;;;;22.11;56.76;100260.75;5014347;28;20129;-54
2022/09/10 14:09:49;;;;;;;5.53;2.58;;;;;;;22.04;56.63;100259.34;5020340;28;20479;-54
2022/09/10 14:12:19;;;;;;;3.75;2.75;;;;;;;22.00;57.38;100263.06;5013613;28;20046;-55
2022/09/10 14:14:52;;;;;;;3.58;1.90;;;;;;;21.91;57.58;100262.56;5015401;28;20497;-57
2022/09/10 14:17:24;;;;;;;4.22;2.63;;;;;;;21.85;57.49;100262.00;5017243;28;20053;-54
2022/09/10 14:19:57;;;;;;;3.78;2.83;;;;;;;21.77;58.41;100263.22;5015901;28;20049;-53
2022/09/10 14:22:25;;;;;;;3.38;2.67;;;;;;;21.79;58.33;100265.78;5013823;28;20066;-56
2022/09/10 14:24:58;;;;;;;4.10;2.85;;;;;;;21.77;58.19;100263.22;5016453;28;20564;-54
2022/09/10 14:33:38;;;;;;;4.60;2.15;;;;;;;21.69;58.14;100281.13;5026620;27;20410;-54
2022/09/10 14:44:27;;;;;;;2.78;1.42;;;;;;;21.83;57.94;100267.34;5024820;28;20404;-54
2022/09/10 14:57:19;;;;;;;5.22;2.42;;;;;;;22.12;57.41;100273.00;5122433;27;20399;-54
2022/09/10 14:59:46;;;;;;;6.57;4.32;;;;;;;22.27;57.50;100281.13;5066559;27;20106;-55
2022/09/10 15:02:18;;;;;;;4.47;3.25;;;;;;;22.36;56.72;100274.56;5062892;28;20526;-52
2022/09/10 15:04:44;;;;;;;2.83;2.60;;;;;;;22.36;56.63;100278.06;5058173;28;20087;-57
2022/09/10 15:07:12;;;;;;;6.13;1.90;;;;;;;22.33;56.75;100279.03;5067915;28;20412;-55